sensor_id;sensor_type;location;lat;lon;timestamp;pressure;altitude;pressure_sealevel;temperature;humidity
21879;BME280;27908;42.708;23.278;2023-05-14T00:01:29;64264.78;;;14.58;71.62
21879;BME280;27908;42.708;23.278;2023-05-14T00:03:54;64275.00;;;14.56;71.80
21879;BME280;27908;42.708;23.278;2023-05-14T00:06:20;64273.00;;;14.58;72.11
21879;BME280;27908;42.708;23.278;2023-05-14T00:08:45;64252.84;;;14.44;71.90
21879;BME280;27908;42.708;23.278;2023-05-14T00:11:11;64258.16;;;14.61;72.19
21879;BME280;27908;42.708;23.278;2023-05-14T00:13:36;64274.94;;;14.48;72.35
21879;BME280;27908;42.708;23.278;2023-05-14T00:16:02;64272.50;;;14.60;72.73
21879;BME280;27908;42.708;23.278;2023-05-14T00:18:27;64278.13;;;14.58;71.97
21879;BME280;27908;42.708;23.278;2023-05-14T00:20:53;64232.97;;;14.57;72.23
21879;BME280;27908;42.708;23.278;2023-05-14T00:23:22;64265.75;;;14.52;71.64
21879;BME280;27908;42.708;23.278;2023-05-14T00:25:48;64262.66;;;14.51;72.00
21879;BME280;27908;42.708;23.278;2023-05-14T00:28:13;64251.88;;;14.48;71.55
21879;BME280;27908;42.708;23.278;2023-05-14T00:30:38;64212.84;;;14.45;71.41
21879;BME280;27908;42.708;23.278;2023-05-14T00:33:05;64259.56;;;14.48;71.03
21879;BME280;27908;42.708;23.278;2023-05-14T00:35:31;64273.22;;;14.32;72.29
21879;BME280;27908;42.708;23.278;2023-05-14T00:37:59;64233.81;;;14.41;72.96
21879;BME280;27908;42.708;23.278;2023-05-14T00:40:26;64179.88;;;14.31;72.48
21879;BME280;27908;42.708;23.278;2023-05-14T00:42:51;64235.41;;;14.45;72.69
21879;BME280;27908;42.708;23.278;2023-05-14T00:45:17;64207.66;;;14.38;72.62
21879;BME280;27908;42.708;23.278;2023-05-14T00:47:43;64276.91;;;14.40;72.07
21879;BME280;27908;42.708;23.278;2023-05-14T00:50:09;64222.59;;;14.45;71.84
21879;BME280;27908;42.708;23.278;2023-05-14T00:52:36;64272.25;;;14.36;71.75
21879;BME280;27908;42.708;23.278;2023-05-14T00:55:04;64257.38;;;14.36;71.33
21879;BME280;27908;42.708;23.278;2023-05-14T00:57:31;64217.91;;;14.38;72.01
21879;BME280;27908;42.708;23.278;2023-05-14T00:59:57;64241.94;;;14.31;71.68
21879;BME280;27908;42.708;23.278;2023-05-14T01:02:23;64206.56;;;14.32;71.80
21879;BME280;27908;42.708;23.278;2023-05-14T01:04:49;64206.47;;;14.24;72.18
21879;BME280;27908;42.708;23.278;2023-05-14T01:12:46;64218.81;;;14.26;73.20
21879;BME280;27908;42.708;23.278;2023-05-14T01:15:27;64220.31;;;14.25;72.60
21879;BME280;27908;42.708;23.278;2023-05-14T01:18:08;64232.03;;;14.17;72.85
21879;BME280;27908;42.708;23.278;2023-05-14T01:20:34;64219.78;;;14.20;73.57
21879;BME280;27908;42.708;23.278;2023-05-14T01:23:01;64211.00;;;14.14;73.25
21879;BME280;27908;42.708;23.278;2023-05-14T01:25:27;64222.31;;;14.18;73.25
21879;BME280;27908;42.708;23.278;2023-05-14T01:30:36;64206.84;;;14.10;73.19
21879;BME280;27908;42.708;23.278;2023-05-14T01:33:13;64219.78;;;14.20;72.57
21879;BME280;27908;42.708;23.278;2023-05-14T01:35:40;64184.78;;;14.09;72.05
21879;BME280;27908;42.708;23.278;2023-05-14T01:38:09;64209.00;;;14.20;71.88
21879;BME280;27908;42.708;23.278;2023-05-14T01:40:36;64250.41;;;14.08;70.81
21879;BME280;27908;42.708;23.278;2023-05-14T01:43:03;64207.84;;;14.09;71.58
21879;BME280;27908;42.708;23.278;2023-05-14T01:45:29;64201.16;;;14.05;72.50
21879;BME280;27908;42.708;23.278;2023-05-14T01:47:55;64163.31;;;14.15;71.65
21879;BME280;27908;42.708;23.278;2023-05-14T01:50:21;64189.88;;;14.04;71.70
21879;BME280;27908;42.708;23.278;2023-05-14T01:52:46;64208.34;;;14.07;72.51
21879;BME280;27908;42.708;23.278;2023-05-14T01:55:17;64202.16;;;14.03;72.80
21879;BME280;27908;42.708;23.278;2023-05-14T01:57:43;64210.41;;;14.06;75.36
21879;BME280;27908;42.708;23.278;2023-05-14T02:00:09;64152.78;;;13.88;74.66
21879;BME280;27908;42.708;23.278;2023-05-14T02:02:35;64170.31;;;13.97;74.04
21879;BME280;27908;42.708;23.278;2023-05-14T02:05:00;64199.00;;;13.98;74.53
21879;BME280;27908;42.708;23.278;2023-05-14T02:07:25;64176.41;;;13.93;74.37
21879;BME280;27908;42.708;23.278;2023-05-14T02:09:51;64161.50;;;13.89;74.68
21879;BME280;27908;42.708;23.278;2023-05-14T02:12:16;64153.28;;;13.88;74.40
21879;BME280;27908;42.708;23.278;2023-05-14T02:14:42;64143.50;;;13.82;74.91
21879;BME280;27908;42.708;23.278;2023-05-14T02:17:07;64096.78;;;13.71;75.43
21879;BME280;27908;42.708;23.278;2023-05-14T02:19:33;64148.03;;;13.76;76.15
21879;BME280;27908;42.708;23.278;2023-05-14T02:21:58;64126.94;;;13.68;78.50
21879;BME280;27908;42.708;23.278;2023-05-14T02:24:25;64123.78;;;13.60;79.31
21879;BME280;27908;42.708;23.278;2023-05-14T02:26:50;64150.06;;;13.73;77.80
21879;BME280;27908;42.708;23.278;2023-05-14T02:29:16;64181.31;;;13.71;78.29
21879;BME280;27908;42.708;23.278;2023-05-14T02:31:41;64135.13;;;13.66;80.35
21879;BME280;27908;42.708;23.278;2023-05-14T02:34:07;64122.25;;;13.59;82.03
21879;BME280;27908;42.708;23.278;2023-05-14T02:36:32;64117.16;;;13.61;82.70
21879;BME280;27908;42.708;23.278;2023-05-14T02:38:58;64088.94;;;13.56;83.94
21879;BME280;27908;42.708;23.278;2023-05-14T02:41:25;64091.91;;;13.47;83.41
21879;BME280;27908;42.708;23.278;2023-05-14T02:43:51;64072.94;;;13.44;81.88
21879;BME280;27908;42.708;23.278;2023-05-14T02:46:17;64085.22;;;13.43;82.79
21879;BME280;27908;42.708;23.278;2023-05-14T02:48:42;64116.44;;;13.44;81.05
21879;BME280;27908;42.708;23.278;2023-05-14T02:51:09;64119.00;;;13.44;82.64
21879;BME280;27908;42.708;23.278;2023-05-14T02:53:34;64073.44;;;13.44;82.59
21879;BME280;27908;42.708;23.278;2023-05-14T02:55:59;64097.03;;;13.47;83.92
21879;BME280;27908;42.708;23.278;2023-05-14T02:58:25;64116.97;;;13.44;81.49
21879;BME280;27908;42.708;23.278;2023-05-14T03:00:50;64091.84;;;13.42;81.35
21879;BME280;27908;42.708;23.278;2023-05-14T03:03:17;64107.63;;;13.33;81.01
21879;BME280;27908;42.708;23.278;2023-05-14T03:05:43;64059.03;;;13.35;80.95
21879;BME280;27908;42.708;23.278;2023-05-14T03:08:08;64079.03;;;13.40;82.20
21879;BME280;27908;42.708;23.278;2023-05-14T03:10:33;64085.19;;;13.41;80.12
21879;BME280;27908;42.708;23.278;2023-05-14T03:12:59;64085.22;;;13.43;79.45
21879;BME280;27908;42.708;23.278;2023-05-14T03:15:24;64071.41;;;13.45;78.65
21879;BME280;27908;42.708;23.278;2023-05-14T03:17:50;64091.31;;;13.37;79.27
21879;BME280;27908;42.708;23.278;2023-05-14T03:20:15;64067.13;;;13.26;80.25
21879;BME280;27908;42.708;23.278;2023-05-14T03:22:41;64109.28;;;13.44;79.52
21879;BME280;27908;42.708;23.278;2023-05-14T03:25:06;64065.09;;;13.26;79.05
21879;BME280;27908;42.708;23.278;2023-05-14T03:27:32;64076.53;;;13.45;79.35
21879;BME280;27908;42.708;23.278;2023-05-14T03:29:58;64068.81;;;13.42;80.11
21879;BME280;27908;42.708;23.278;2023-05-14T03:32:24;64092.38;;;13.43;85.19
21879;BME280;27908;42.708;23.278;2023-05-14T03:34:49;64055.47;;;13.37;86.57
21879;BME280;27908;42.708;23.278;2023-05-14T03:37:15;64053.38;;;13.32;85.12
21879;BME280;27908;42.708;23.278;2023-05-14T03:39:40;64078.97;;;13.32;87.01
21879;BME280;27908;42.708;23.278;2023-05-14T03:42:06;64090.69;;;13.29;89.93
21879;BME280;27908;42.708;23.278;2023-05-14T03:44:31;64017.81;;;13.08;89.83
21879;BME280;27908;42.708;23.278;2023-05-14T03:46:56;64080.88;;;13.22;91.09
21879;BME280;27908;42.708;23.278;2023-05-14T03:49:22;64041.97;;;13.19;90.85
21879;BME280;27908;42.708;23.278;2023-05-14T03:51:47;64128.38;;;13.11;92.31
21879;BME280;27908;42.708;23.278;2023-05-14T03:54:13;64045.41;;;13.08;91.36
21879;BME280;27908;42.708;23.278;2023-05-14T03:56:38;64026.97;;;13.05;92.24
21879;BME280;27908;42.708;23.278;2023-05-14T03:59:03;64028.31;;;12.86;92.06
21879;BME280;27908;42.708;23.278;2023-05-14T04:01:29;64036.66;;;13.02;90.72
21879;BME280;27908;42.708;23.278;2023-05-14T04:03:54;64059.19;;;13.01;91.46
21879;BME280;27908;42.708;23.278;2023-05-14T04:06:20;64010.56;;;13.01;90.55
21879;BME280;27908;42.708;23.278;2023-05-14T04:08:45;63983.97;;;13.03;89.50
21879;BME280;27908;42.708;23.278;2023-05-14T04:11:10;64028.91;;;12.94;88.92
21879;BME280;27908;42.708;23.278;2023-05-14T04:13:36;63993.63;;;12.95;89.21
21879;BME280;27908;42.708;23.278;2023-05-14T04:16:01;64010.03;;;12.98;87.13
21879;BME280;27908;42.708;23.278;2023-05-14T04:18:27;64037.25;;;13.07;88.38
21879;BME280;27908;42.708;23.278;2023-05-14T04:20:52;64048.44;;;13.03;88.64
21879;BME280;27908;42.708;23.278;2023-05-14T04:23:17;64053.06;;;13.05;88.73
21879;BME280;27908;42.708;23.278;2023-05-14T04:25:43;64102.84;;;13.16;87.09
21879;BME280;27908;42.708;23.278;2023-05-14T04:28:08;64004.09;;;13.22;86.97
21879;BME280;27908;42.708;23.278;2023-05-14T04:30:34;64074.78;;;13.23;86.40
21879;BME280;27908;42.708;23.278;2023-05-14T04:32:59;64081.94;;;13.23;85.30
21879;BME280;27908;42.708;23.278;2023-05-14T04:35:25;64042.03;;;13.26;84.45
21879;BME280;27908;42.708;23.278;2023-05-14T04:37:50;64089.13;;;13.25;85.20
21879;BME280;27908;42.708;23.278;2023-05-14T04:40:16;64041.84;;;13.07;86.00
21879;BME280;27908;42.708;23.278;2023-05-14T04:42:42;64082.97;;;13.24;86.46
21879;BME280;27908;42.708;23.278;2023-05-14T04:45:08;64081.41;;;13.22;86.42
21879;BME280;27908;42.708;23.278;2023-05-14T04:47:33;64051.72;;;13.23;87.46
21879;BME280;27908;42.708;23.278;2023-05-14T04:49:59;64081.97;;;13.25;87.29
21879;BME280;27908;42.708;23.278;2023-05-14T04:52:24;64056.25;;;13.15;88.65
21879;BME280;27908;42.708;23.278;2023-05-14T04:54:50;64030.66;;;13.13;91.01
21879;BME280;27908;42.708;23.278;2023-05-14T04:57:15;64033.72;;;13.14;91.41
21879;BME280;27908;42.708;23.278;2023-05-14T04:59:41;64013.56;;;12.94;93.70
21879;BME280;27908;42.708;23.278;2023-05-14T05:02:07;64016.63;;;12.92;96.02
21879;BME280;27908;42.708;23.278;2023-05-14T05:04:32;64007.69;;;12.72;99.21
21879;BME280;27908;42.708;23.278;2023-05-14T05:06:57;64020.19;;;12.93;100.00
21879;BME280;27908;42.708;23.278;2023-05-14T05:09:23;64025.81;;;12.91;100.00
21879;BME280;27908;42.708;23.278;2023-05-14T05:11:48;63967.84;;;12.78;100.00
21879;BME280;27908;42.708;23.278;2023-05-14T05:14:14;63974.38;;;12.67;100.00
21879;BME280;27908;42.708;23.278;2023-05-14T05:16:39;63949.88;;;12.70;100.00
21879;BME280;27908;42.708;23.278;2023-05-14T05:19:05;64002.97;;;12.62;100.00
21879;BME280;27908;42.708;23.278;2023-05-14T05:21:30;63932.16;;;12.39;100.00
21879;BME280;27908;42.708;23.278;2023-05-14T05:23:56;63940.25;;;12.29;100.00
21879;BME280;27908;42.708;23.278;2023-05-14T05:26:21;63939.19;;;12.26;100.00
21879;BME280;27908;42.708;23.278;2023-05-14T05:28:47;63930.44;;;12.20;100.00
21879;BME280;27908;42.708;23.278;2023-05-14T05:31:12;63899.75;;;12.17;100.00
21879;BME280;27908;42.708;23.278;2023-05-14T05:33:38;63905.78;;;12.08;100.00
21879;BME280;27908;42.708;23.278;2023-05-14T05:36:03;63835.66;;;11.93;100.00
21879;BME280;27908;42.708;23.278;2023-05-14T05:38:29;63868.88;;;11.95;100.00
21879;BME280;27908;42.708;23.278;2023-05-14T05:40:55;63847.34;;;11.87;100.00
21879;BME280;27908;42.708;23.278;2023-05-14T05:43:20;63836.56;;;11.81;100.00
21879;BME280;27908;42.708;23.278;2023-05-14T05:45:46;63862.50;;;11.72;100.00
21879;BME280;27908;42.708;23.278;2023-05-14T05:48:11;63795.00;;;11.61;100.00
21879;BME280;27908;42.708;23.278;2023-05-14T05:50:37;63793.31;;;11.47;100.00
21879;BME280;27908;42.708;23.278;2023-05-14T05:53:02;63841.41;;;11.57;100.00
21879;BME280;27908;42.708;23.278;2023-05-14T05:55:28;63836.78;;;11.52;100.00
21879;BME280;27908;42.708;23.278;2023-05-14T05:57:53;63802.13;;;11.58;100.00
21879;BME280;27908;42.708;23.278;2023-05-14T06:00:19;63779.16;;;11.58;100.00
21879;BME280;27908;42.708;23.278;2023-05-14T06:02:45;63792.44;;;11.59;100.00
21879;BME280;27908;42.708;23.278;2023-05-14T06:05:10;63815.84;;;11.52;100.00
21879;BME280;27908;42.708;23.278;2023-05-14T06:07:36;63814.66;;;11.38;100.00
21879;BME280;27908;42.708;23.278;2023-05-14T06:10:02;63833.28;;;11.61;100.00
21879;BME280;27908;42.708;23.278;2023-05-14T06:12:27;63864.47;;;11.64;100.00
21879;BME280;27908;42.708;23.278;2023-05-14T06:14:54;63830.31;;;11.68;100.00
21879;BME280;27908;42.708;23.278;2023-05-14T06:17:20;63831.34;;;11.69;100.00
21879;BME280;27908;42.708;23.278;2023-05-14T06:19:45;63859.44;;;11.72;100.00
21879;BME280;27908;42.708;23.278;2023-05-14T06:22:11;63817.59;;;11.73;100.00
21879;BME280;27908;42.708;23.278;2023-05-14T06:24:37;63879.38;;;11.76;100.00
21879;BME280;27908;42.708;23.278;2023-05-14T06:27:02;63825.25;;;11.75;100.00
21879;BME280;27908;42.708;23.278;2023-05-14T06:29:27;63804.69;;;11.61;100.00
21879;BME280;27908;42.708;23.278;2023-05-14T06:31:53;63822.47;;;11.51;100.00
21879;BME280;27908;42.708;23.278;2023-05-14T06:34:18;63789.66;;;11.41;100.00
21879;BME280;27908;42.708;23.278;2023-05-14T06:36:44;63822.47;;;11.53;100.00
21879;BME280;27908;42.708;23.278;2023-05-14T06:39:09;63831.13;;;11.49;100.00
21879;BME280;27908;42.708;23.278;2023-05-14T06:41:34;63771.38;;;11.46;100.00
21879;BME280;27908;42.708;23.278;2023-05-14T06:44:00;63827.06;;;11.50;100.00
21879;BME280;27908;42.708;23.278;2023-05-14T06:46:25;63840.94;;;11.59;100.00
21879;BME280;27908;42.708;23.278;2023-05-14T06:48:50;63776.84;;;11.34;100.00
21879;BME280;27908;42.708;23.278;2023-05-14T06:51:16;63778.47;;;11.43;100.00
21879;BME280;27908;42.708;23.278;2023-05-14T06:53:41;63875.66;;;11.60;100.00
21879;BME280;27908;42.708;23.278;2023-05-14T06:56:07;63788.31;;;11.55;100.00
21879;BME280;27908;42.708;23.278;2023-05-14T06:58:37;63785.66;;;11.47;100.00
21879;BME280;27908;42.708;23.278;2023-05-14T07:01:02;63805.69;;;11.59;100.00
21879;BME280;27908;42.708;23.278;2023-05-14T07:03:28;63812.88;;;11.64;100.00
21879;BME280;27908;42.708;23.278;2023-05-14T07:05:53;63819.50;;;11.60;100.00
21879;BME280;27908;42.708;23.278;2023-05-14T07:08:18;63830.84;;;11.71;100.00
21879;BME280;27908;42.708;23.278;2023-05-14T07:10:44;63860.00;;;11.77;100.00
21879;BME280;27908;42.708;23.278;2023-05-14T07:13:09;63855.91;;;11.78;100.00
21879;BME280;27908;42.708;23.278;2023-05-14T07:15:35;63852.84;;;11.77;100.00
21879;BME280;27908;42.708;23.278;2023-05-14T07:18:00;63865.59;;;11.73;100.00
21879;BME280;27908;42.708;23.278;2023-05-14T07:20:26;63880.91;;;11.73;100.00
21879;BME280;27908;42.708;23.278;2023-05-14T07:22:51;63877.97;;;11.84;100.00
21879;BME280;27908;42.708;23.278;2023-05-14T07:25:17;63851.72;;;11.67;100.00
21879;BME280;27908;42.708;23.278;2023-05-14T07:27:42;63827.28;;;11.73;100.00
21879;BME280;27908;42.708;23.278;2023-05-14T07:30:08;63822.06;;;11.63;100.00
21879;BME280;27908;42.708;23.278;2023-05-14T07:32:33;63833.13;;;11.44;100.00
21879;BME280;27908;42.708;23.278;2023-05-14T07:34:59;63792.66;;;11.32;100.00
21879;BME280;27908;42.708;23.278;2023-05-14T07:37:24;63824.97;;;11.46;100.00
21879;BME280;27908;42.708;23.278;2023-05-14T07:39:53;63784.75;;;11.56;100.00
21879;BME280;27908;42.708;23.278;2023-05-14T07:42:18;63805.72;;;11.62;100.00
21879;BME280;27908;42.708;23.278;2023-05-14T07:44:44;63825.59;;;11.56;100.00
21879;BME280;27908;42.708;23.278;2023-05-14T07:47:10;63806.31;;;11.70;100.00
21879;BME280;27908;42.708;23.278;2023-05-14T07:49:35;63866.72;;;11.86;100.00
21879;BME280;27908;42.708;23.278;2023-05-14T07:52:01;63826.31;;;11.76;100.00
21879;BME280;27908;42.708;23.278;2023-05-14T07:54:26;63881.59;;;11.90;100.00
21879;BME280;27908;42.708;23.278;2023-05-14T07:56:52;63850.91;;;11.88;100.00
21879;BME280;27908;42.708;23.278;2023-05-14T07:59:17;63878.00;;;11.89;100.00
21879;BME280;27908;42.708;23.278;2023-05-14T08:01:43;63908.78;;;12.02;100.00
21879;BME280;27908;42.708;23.278;2023-05-14T08:04:08;63857.59;;;11.89;100.00
21879;BME280;27908;42.708;23.278;2023-05-14T08:06:36;63887.34;;;12.01;100.00
21879;BME280;27908;42.708;23.278;2023-05-14T08:09:02;63935.50;;;12.15;100.00
21879;BME280;27908;42.708;23.278;2023-05-14T08:11:30;63955.00;;;12.21;100.00
21879;BME280;27908;42.708;23.278;2023-05-14T08:13:55;63938.19;;;12.27;100.00
21879;BME280;27908;42.708;23.278;2023-05-14T08:16:21;63964.25;;;12.28;100.00
21879;BME280;27908;42.708;23.278;2023-05-14T08:18:47;63929.41;;;12.19;100.00
21879;BME280;27908;42.708;23.278;2023-05-14T08:21:13;63905.41;;;12.20;100.00
21879;BME280;27908;42.708;23.278;2023-05-14T08:23:38;63936.13;;;12.25;100.00
21879;BME280;27908;42.708;23.278;2023-05-14T08:26:03;63916.16;;;12.21;100.00
21879;BME280;27908;42.708;23.278;2023-05-14T08:28:29;63908.38;;;12.11;100.00
21879;BME280;27908;42.708;23.278;2023-05-14T08:30:54;63945.72;;;12.15;100.00
21879;BME280;27908;42.708;23.278;2023-05-14T08:33:20;63936.66;;;12.28;100.00
21879;BME280;27908;42.708;23.278;2023-05-14T08:35:45;63925.00;;;12.37;100.00
21879;BME280;27908;42.708;23.278;2023-05-14T08:38:10;63933.75;;;12.43;100.00
21879;BME280;27908;42.708;23.278;2023-05-14T08:40:36;63956.03;;;12.22;100.00
21879;BME280;27908;42.708;23.278;2023-05-14T08:43:02;63930.16;;;12.39;100.00
21879;BME280;27908;42.708;23.278;2023-05-14T08:45:29;63893.66;;;12.19;100.00
21879;BME280;27908;42.708;23.278;2023-05-14T08:47:58;63907.44;;;12.17;100.00
21879;BME280;27908;42.708;23.278;2023-05-14T08:50:25;63907.91;;;12.13;100.00
21879;BME280;27908;42.708;23.278;2023-05-14T08:52:52;63918.78;;;12.28;100.00
21879;BME280;27908;42.708;23.278;2023-05-14T08:55:17;63936.63;;;12.23;100.00
21879;BME280;27908;42.708;23.278;2023-05-14T08:57:43;63929.56;;;12.31;100.00
21879;BME280;27908;42.708;23.278;2023-05-14T09:00:09;63923.88;;;12.28;100.00
21879;BME280;27908;42.708;23.278;2023-05-14T09:02:41;63954.63;;;12.33;100.00
21879;BME280;27908;42.708;23.278;2023-05-14T09:05:08;63931.69;;;12.41;100.00
21879;BME280;27908;42.708;23.278;2023-05-14T09:07:34;63980.47;;;12.63;100.00
21879;BME280;27908;42.708;23.278;2023-05-14T09:10:00;63987.31;;;12.79;100.00
21879;BME280;27908;42.708;23.278;2023-05-14T09:12:26;63995.09;;;12.89;100.00
21879;BME280;27908;42.708;23.278;2023-05-14T09:14:52;64047.44;;;13.05;100.00
21879;BME280;27908;42.708;23.278;2023-05-14T09:17:17;64079.34;;;13.20;100.00
21879;BME280;27908;42.708;23.278;2023-05-14T09:19:44;64036.34;;;13.18;100.00
21879;BME280;27908;42.708;23.278;2023-05-14T09:22:14;64063.03;;;13.27;100.00
21879;BME280;27908;42.708;23.278;2023-05-14T09:24:40;64059.91;;;13.24;100.00
21879;BME280;27908;42.708;23.278;2023-05-14T09:27:06;64047.66;;;13.24;100.00
21879;BME280;27908;42.708;23.278;2023-05-14T09:29:33;64030.59;;;13.08;100.00
21879;BME280;27908;42.708;23.278;2023-05-14T09:31:59;64010.00;;;12.96;100.00
21879;BME280;27908;42.708;23.278;2023-05-14T09:34:33;64026.38;;;12.94;100.00
21879;BME280;27908;42.708;23.278;2023-05-14T09:37:04;64000.03;;;12.72;100.00
21879;BME280;27908;42.708;23.278;2023-05-14T09:39:30;63976.06;;;12.78;100.00
21879;BME280;27908;42.708;23.278;2023-05-14T09:41:56;63979.94;;;12.60;100.00
21879;BME280;27908;42.708;23.278;2023-05-14T09:44:22;63964.13;;;12.64;100.00
21879;BME280;27908;42.708;23.278;2023-05-14T09:46:48;63951.31;;;12.59;100.00
21879;BME280;27908;42.708;23.278;2023-05-14T09:49:14;63939.78;;;12.34;100.00
21879;BME280;27908;42.708;23.278;2023-05-14T09:51:40;63943.00;;;12.46;100.00
21879;BME280;27908;42.708;23.278;2023-05-14T09:54:07;63945.00;;;12.43;100.00
21879;BME280;27908;42.708;23.278;2023-05-14T09:56:33;63951.66;;;12.45;100.00
21879;BME280;27908;42.708;23.278;2023-05-14T09:58:59;63994.78;;;12.59;100.00
21879;BME280;27908;42.708;23.278;2023-05-14T10:01:27;63940.50;;;12.51;100.00
21879;BME280;27908;42.708;23.278;2023-05-14T10:03:53;63914.44;;;12.53;100.00
21879;BME280;27908;42.708;23.278;2023-05-14T10:06:23;63945.13;;;12.56;100.00
21879;BME280;27908;42.708;23.278;2023-05-14T17:31:24;63836.72;;;11.47;100.00
21879;BME280;27908;42.708;23.278;2023-05-14T17:33:50;63836.19;;;11.44;100.00
21879;BME280;27908;42.708;23.278;2023-05-14T17:36:16;63883.28;;;11.58;100.00
21879;BME280;27908;42.708;23.278;2023-05-14T17:38:41;63885.50;;;11.72;100.00
21879;BME280;27908;42.708;23.278;2023-05-14T17:41:06;63866.59;;;11.73;100.00
21879;BME280;27908;42.708;23.278;2023-05-14T17:43:32;63876.38;;;11.80;100.00
21879;BME280;27908;42.708;23.278;2023-05-14T17:45:57;63906.00;;;11.82;100.00
21879;BME280;27908;42.708;23.278;2023-05-14T17:48:23;63892.31;;;11.88;100.00
21879;BME280;27908;42.708;23.278;2023-05-14T17:50:49;63843.00;;;11.63;100.00
21879;BME280;27908;42.708;23.278;2023-05-14T17:53:15;63912.63;;;11.78;100.00
21879;BME280;27908;42.708;23.278;2023-05-14T17:55:41;63937.75;;;11.88;100.00
21879;BME280;27908;42.708;23.278;2023-05-14T17:58:12;63966.88;;;11.89;100.00
21879;BME280;27908;42.708;23.278;2023-05-14T18:00:39;63894.94;;;11.96;100.00
21879;BME280;27908;42.708;23.278;2023-05-14T18:03:04;63914.28;;;11.92;100.00
21879;BME280;27908;42.708;23.278;2023-05-14T18:05:31;63875.47;;;11.92;100.00
21879;BME280;27908;42.708;23.278;2023-05-14T18:07:57;63925.00;;;11.90;100.00
21879;BME280;27908;42.708;23.278;2023-05-14T18:10:23;63869.16;;;11.73;100.00
21879;BME280;27908;42.708;23.278;2023-05-14T18:12:49;63903.00;;;11.86;100.00
21879;BME280;27908;42.708;23.278;2023-05-14T18:15:14;63891.84;;;11.93;100.00
21879;BME280;27908;42.708;23.278;2023-05-14T18:17:40;63911.84;;;12.00;100.00
21879;BME280;27908;42.708;23.278;2023-05-14T18:20:06;63881.16;;;11.97;100.00
21879;BME280;27908;42.708;23.278;2023-05-14T18:22:32;63957.88;;;12.05;100.00
21879;BME280;27908;42.708;23.278;2023-05-14T18:24:57;63950.25;;;12.09;100.00
21879;BME280;27908;42.708;23.278;2023-05-14T18:27:22;63910.31;;;12.01;100.00
21879;BME280;27908;42.708;23.278;2023-05-14T18:29:48;63910.22;;;11.93;100.00
21879;BME280;27908;42.708;23.278;2023-05-14T18:32:15;63874.75;;;11.72;100.00
21879;BME280;27908;42.708;23.278;2023-05-14T18:34:40;63818.97;;;11.60;100.00
21879;BME280;27908;42.708;23.278;2023-05-14T18:37:06;63890.09;;;11.74;100.00
21879;BME280;27908;42.708;23.278;2023-05-14T18:39:31;63881.44;;;11.75;100.00
21879;BME280;27908;42.708;23.278;2023-05-14T18:41:57;63861.47;;;11.71;100.00
21879;BME280;27908;42.708;23.278;2023-05-14T18:44:22;63846.13;;;11.66;100.00
21879;BME280;27908;42.708;23.278;2023-05-14T18:46:48;63843.97;;;11.59;100.00
21879;BME280;27908;42.708;23.278;2023-05-14T18:49:13;63825.00;;;11.51;100.00
21879;BME280;27908;42.708;23.278;2023-05-14T18:51:38;63823.41;;;11.44;100.00
21879;BME280;27908;42.708;23.278;2023-05-14T18:54:04;63851.53;;;11.49;100.00
21879;BME280;27908;42.708;23.278;2023-05-14T18:56:29;63895.47;;;11.52;100.00
21879;BME280;27908;42.708;23.278;2023-05-14T18:58:55;63899.47;;;11.44;100.00
21879;BME280;27908;42.708;23.278;2023-05-14T19:01:20;63909.28;;;11.56;100.00
21879;BME280;27908;42.708;23.278;2023-05-14T19:03:49;63878.22;;;11.63;100.00
21879;BME280;27908;42.708;23.278;2023-05-14T19:06:14;63885.91;;;11.65;100.00
21879;BME280;27908;42.708;23.278;2023-05-14T19:08:39;63872.56;;;11.60;100.00
21879;BME280;27908;42.708;23.278;2023-05-14T19:11:05;63841.53;;;11.67;100.00
21879;BME280;27908;42.708;23.278;2023-05-14T19:13:30;63869.53;;;11.62;100.00
21879;BME280;27908;42.708;23.278;2023-05-14T19:15:56;63899.78;;;11.71;100.00
21879;BME280;27908;42.708;23.278;2023-05-14T19:18:21;63944.13;;;11.65;100.00
21879;BME280;27908;42.708;23.278;2023-05-14T19:20:47;63885.44;;;11.70;100.00
21879;BME280;27908;42.708;23.278;2023-05-14T19:23:12;63874.78;;;11.74;100.00
21879;BME280;27908;42.708;23.278;2023-05-14T19:25:38;63874.75;;;11.72;100.00
21879;BME280;27908;42.708;23.278;2023-05-14T19:28:03;63869.03;;;11.61;100.00
21879;BME280;27908;42.708;23.278;2023-05-14T19:30:29;63873.22;;;11.70;100.00
21879;BME280;27908;42.708;23.278;2023-05-14T19:32:55;63887.47;;;11.67;100.00
21879;BME280;27908;42.708;23.278;2023-05-14T19:35:20;63890.56;;;11.70;100.00
21879;BME280;27908;42.708;23.278;2023-05-14T19:37:46;63902.84;;;11.72;100.00
21879;BME280;27908;42.708;23.278;2023-05-14T19:40:11;63892.72;;;11.81;100.00
21879;BME280;27908;42.708;23.278;2023-05-14T19:42:36;63862.59;;;11.82;100.00
21879;BME280;27908;42.708;23.278;2023-05-14T19:45:02;63889.72;;;11.86;100.00
21879;BME280;27908;42.708;23.278;2023-05-14T19:47:28;63850.19;;;11.65;100.00
21879;BME280;27908;42.708;23.278;2023-05-14T19:49:53;63903.94;;;11.80;100.00
21879;BME280;27908;42.708;23.278;2023-05-14T19:52:19;63893.81;;;11.85;100.00
21879;BME280;27908;42.708;23.278;2023-05-14T19:54:44;63902.47;;;11.86;100.00
21879;BME280;27908;42.708;23.278;2023-05-14T19:57:09;63920.34;;;11.83;100.00
21879;BME280;27908;42.708;23.278;2023-05-14T19:59:35;63934.81;;;12.00;100.00
21879;BME280;27908;42.708;23.278;2023-05-14T20:02:02;63943.06;;;12.05;100.00
21879;BME280;27908;42.708;23.278;2023-05-14T20:04:28;63917.06;;;12.12;100.00
21879;BME280;27908;42.708;23.278;2023-05-14T20:06:54;63933.78;;;11.99;100.00